Time;durP1;ratioP1;P1;durP2;ratioP2;P2;SDS_P1;SDS_P2;PMS_P1;PMS_P2;Temp;Humidity;BMP_temperature;BMP_pressure;BME280_temperature;BME280_humidity;BME280_pressure;Samples;Min_cycle;Max_cycle;Signal;HPM_P1;HPM_P2
2023/04/14 00:00:23;;;;;;;4.50;4.10;;;;;;;2.68;100.00;100928.38;5001976;28;20192;-47
2023/04/14 00:02:49;;;;;;;5.63;4.05;;;;;;;2.64;100.00;100936.31;5004769;28;20175;-47
2023/04/14 00:05:15;;;;;;;5.00;4.15;;;;;;;2.58;100.00;100944.28;5014350;28;20180;-48
2023/04/14 00:07:40;;;;;;;4.53;3.85;;;;;;;2.61;100.00;100939.00;5005497;28;20204;-48
2023/04/14 00:10:06;;;;;;;4.78;3.97;;;;;;;2.50;100.00;100943.44;5010564;28;20267;-47
2023/04/14 00:12:32;;;;;;;8.52;4.10;;;;;;;2.45;100.00;100941.69;5020631;28;20176;-47
2023/04/14 00:14:57;;;;;;;4.65;3.85;;;;;;;2.55;100.00;100931.06;5015497;28;20187;-47
2023/04/14 00:17:23;;;;;;;6.85;4.20;;;;;;;2.58;100.00;100931.06;5011301;28;20209;-47
2023/04/14 00:19:48;;;;;;;4.95;3.50;;;;;;;2.39;100.00;100939.06;5001649;28;20173;-47
2023/04/14 00:22:14;;;;;;;5.20;3.85;;;;;;;2.48;100.00;100933.72;5003723;28;20220;-47
2023/04/14 00:24:42;;;;;;;3.80;3.15;;;;;;;2.52;100.00;100942.56;5006910;28;20209;-48
2023/04/14 00:27:10;;;;;;;5.55;3.45;;;;;;;2.34;100.00;100943.50;5015010;28;20571;-46
2023/04/14 00:29:38;;;;;;;6.43;3.70;;;;;;;2.24;100.00;100944.38;5010348;28;20193;-48
2023/04/14 00:32:07;;;;;;;3.97;3.05;;;;;;;2.23;100.00;100946.16;5019516;28;20180;-46
2023/04/14 00:34:33;;;;;;;4.68;3.90;;;;;;;2.23;100.00;100929.41;5019821;28;20566;-46
2023/04/14 00:36:59;;;;;;;4.57;3.58;;;;;;;2.35;100.00;100939.06;4996411;28;20184;-46
2023/04/14 00:39:24;;;;;;;4.70;3.70;;;;;;;2.35;100.00;100944.38;5015629;28;20700;-48
2023/04/14 00:41:50;;;;;;;3.88;3.20;;;;;;;2.41;100.00;100945.22;5005244;28;20670;-47
2023/04/14 00:44:15;;;;;;;5.20;3.50;;;;;;;2.38;100.00;100944.34;5009764;28;20242;-47
2023/04/14 00:46:42;;;;;;;4.28;3.55;;;;;;;2.42;100.00;100948.75;5012556;28;20694;-46
2023/04/14 00:49:08;;;;;;;4.97;3.67;;;;;;;2.37;100.00;100946.13;5014638;28;20754;-46
2023/04/14 00:51:35;;;;;;;5.03;3.25;;;;;;;2.41;100.00;100953.16;5019376;28;20269;-45
2023/04/14 00:54:10;;;;;;;4.10;3.72;;;;;;;2.39;100.00;100951.41;5021525;28;20185;-46
2023/04/14 00:56:36;;;;;;;4.13;3.35;;;;;;;2.44;100.00;100957.56;5004871;28;20609;-47
2023/04/14 00:59:02;;;;;;;3.65;3.05;;;;;;;2.42;100.00;100951.38;5015864;28;20917;-49
2023/04/14 01:01:28;;;;;;;5.60;3.30;;;;;;;2.32;100.00;100965.50;5013898;28;20180;-47
2023/04/14 01:03:55;;;;;;;4.82;2.97;;;;;;;2.31;100.00;100951.41;5015025;28;20222;-46
2023/04/14 01:06:20;;;;;;;3.97;3.08;;;;;;;2.32;100.00;100963.75;5017167;28;20259;-46
2023/04/14 01:08:48;;;;;;;5.53;3.03;;;;;;;2.34;100.00;100956.72;5017061;28;20279;-47
2023/04/14 01:11:32;;;;;;;4.10;2.90;;;;;;;2.35;100.00;100947.00;5011311;28;20183;-48
2023/04/14 01:14:23;;;;;;;3.42;3.00;;;;;;;2.34;100.00;100959.34;5005885;28;20188;-46
2023/04/14 01:16:53;;;;;;;4.20;3.20;;;;;;;2.11;100.00;100955.88;5007235;28;21154;-46
2023/04/14 01:19:28;;;;;;;3.33;2.75;;;;;;;2.10;100.00;100956.72;5014432;28;20213;-45
2023/04/14 01:22:00;;;;;;;4.45;3.28;;;;;;;2.13;100.00;100951.47;5002033;28;20566;-46
2023/04/14 01:24:35;;;;;;;3.20;2.63;;;;;;;2.14;100.00;100961.13;5025303;28;20607;-45
2023/04/14 01:27:30;;;;;;;3.60;2.60;;;;;;;2.05;100.00;100957.63;5018772;28;20634;-47
2023/04/14 01:29:55;;;;;;;4.07;2.95;;;;;;;2.09;100.00;100968.22;5019625;28;20189;-48
2023/04/14 01:32:22;;;;;;;4.90;3.05;;;;;;;1.97;100.00;100963.81;5011124;28;20181;-47
2023/04/14 01:35:04;;;;;;;5.57;3.33;;;;;;;1.55;100.00;100966.47;5009680;28;20669;-47
2023/04/14 01:37:34;;;;;;;5.60;3.30;;;;;;;1.42;100.00;100959.38;5006367;28;20201;-48
2023/04/14 01:40:06;;;;;;;3.38;3.08;;;;;;;1.43;100.00;100966.44;5015872;28;20177;-46
2023/04/14 01:42:36;;;;;;;4.20;3.25;;;;;;;1.51;100.00;100967.34;5000107;28;20327;-46
2023/04/14 01:45:09;;;;;;;4.55;3.17;;;;;;;1.49;100.00;100974.38;5025500;28;20658;-48
2023/04/14 01:47:40;;;;;;;4.05;3.03;;;;;;;1.54;100.00;100969.09;4986502;28;20197;-47
2023/04/14 01:50:08;;;;;;;3.72;3.03;;;;;;;1.65;100.00;100968.22;5015436;28;20187;-46
2023/04/14 01:52:36;;;;;;;4.90;3.63;;;;;;;1.63;100.00;100964.69;5002565;28;20803;-46
2023/04/14 01:55:05;;;;;;;4.85;3.38;;;;;;;1.55;100.00;100961.19;5003378;28;20211;-47
2023/04/14 01:57:37;;;;;;;4.70;3.20;;;;;;;1.40;100.00;100974.34;5013014;28;20180;-46
2023/04/14 02:00:06;;;;;;;5.10;3.30;;;;;;;1.43;100.00;100974.34;5018746;28;20194;-46
2023/04/14 02:02:42;;;;;;;3.70;2.95;;;;;;;1.35;100.00;100982.25;5011967;28;20304;-47
2023/04/14 02:05:09;;;;;;;5.10;3.22;;;;;;;1.06;100.00;100992.75;5023235;28;20312;-48
2023/04/14 02:07:36;;;;;;;5.25;3.30;;;;;;;1.17;100.00;100988.38;5021179;28;20192;-47
2023/04/14 02:10:04;;;;;;;4.38;2.80;;;;;;;1.37;100.00;100992.81;5001117;28;20275;-47
2023/04/14 02:12:30;;;;;;;6.88;2.72;;;;;;;1.47;100.00;100989.34;5009796;28;20564;-49
2023/04/14 02:14:59;;;;;;;5.13;3.30;;;;;;;1.38;100.00;101002.53;5012888;28;20187;-46
2023/04/14 02:17:25;;;;;;;5.30;3.25;;;;;;;1.40;100.00;100990.16;5009046;28;20192;-47
2023/04/14 02:19:53;;;;;;;3.72;3.30;;;;;;;1.49;100.00;100999.88;5021340;28;20196;-47
2023/04/14 02:22:19;;;;;;;5.20;3.08;;;;;;;1.52;100.00;101000.78;5027082;28;20612;-46
2023/04/14 02:24:48;;;;;;;4.97;2.95;;;;;;;1.49;100.00;101005.16;5024812;28;20209;-46
2023/04/14 02:27:29;;;;;;;3.83;2.97;;;;;;;1.34;100.00;101008.66;5021286;28;20196;-48
2023/04/14 02:30:07;;;;;;;3.08;2.80;;;;;;;1.00;100.00;100998.00;5006523;28;20679;-46
2023/04/14 02:32:34;;;;;;;4.65;3.13;;;;;;;0.84;100.00;100989.16;5023403;28;20650;-47
2023/04/14 02:35:05;;;;;;;6.15;3.35;;;;;;;0.81;100.00;100987.38;5011878;28;20192;-46
2023/04/14 02:37:39;;;;;;;3.20;2.90;;;;;;;0.82;100.00;100997.03;5016827;28;20197;-46
2023/04/14 02:40:14;;;;;;;3.25;3.05;;;;;;;1.02;100.00;100991.84;5021941;28;20233;-47
2023/04/14 02:42:44;;;;;;;3.35;2.97;;;;;;;1.02;100.00;100988.31;5016316;28;20222;-47
2023/04/14 02:45:18;;;;;;;4.30;3.42;;;;;;;1.12;100.00;100991.91;5000523;28;20239;-46
2023/04/14 02:47:46;;;;;;;5.15;3.38;;;;;;;1.11;100.00;100988.34;5013151;28;20236;-48
2023/04/14 02:50:14;;;;;;;5.38;3.65;;;;;;;0.95;100.00;100983.91;5014337;28;20667;-45
2023/04/14 02:52:50;;;;;;;3.47;3.20;;;;;;;0.88;100.00;100984.78;5012176;28;20759;-48
2023/04/14 02:55:18;;;;;;;6.50;3.33;;;;;;;0.58;100.00;100989.91;5022579;28;20804;-48
2023/04/14 02:57:47;;;;;;;6.07;3.92;;;;;;;0.56;100.00;100985.50;5018131;28;20283;-47
2023/04/14 03:00:14;;;;;;;3.55;3.15;;;;;;;0.65;100.00;101005.75;5022354;28;20533;-46
2023/04/14 03:02:45;;;;;;;5.22;3.42;;;;;;;0.79;100.00;100999.69;5015415;28;20670;-47
2023/04/14 03:05:13;;;;;;;3.75;2.88;;;;;;;0.92;100.00;101004.97;5010325;28;20186;-47
2023/04/14 03:07:49;;;;;;;4.38;3.55;;;;;;;0.87;100.00;101004.09;5012249;28;20695;-48
2023/04/14 03:10:17;;;;;;;3.83;3.20;;;;;;;0.77;100.00;101009.34;5020018;28;20239;-46
2023/04/14 03:12:45;;;;;;;3.80;3.47;;;;;;;0.81;100.00;101010.25;5019539;28;20188;-47
2023/04/14 03:15:11;;;;;;;7.85;3.40;;;;;;;0.78;100.00;101011.09;5013931;28;20177;-47
2023/04/14 03:17:38;;;;;;;4.45;3.90;;;;;;;0.73;100.00;101001.41;5019694;28;20193;-48
2023/04/14 03:20:06;;;;;;;7.07;3.58;;;;;;;0.71;100.00;101011.94;5023994;28;20184;-47
2023/04/14 03:22:37;;;;;;;6.88;3.72;;;;;;;0.77;100.00;101013.75;5005219;28;20177;-47
2023/04/14 03:25:04;;;;;;;5.85;3.60;;;;;;;0.76;100.00;101022.50;5010346;28;20770;-49
2023/04/14 03:27:31;;;;;;;4.43;2.65;;;;;;;0.85;100.00;101016.41;5020303;28;20618;-48
2023/04/14 03:30:02;;;;;;;5.05;3.28;;;;;;;0.77;100.00;101016.38;5021952;28;20183;-47
2023/04/14 03:32:35;;;;;;;4.30;3.08;;;;;;;0.72;100.00;101013.72;5001498;28;20185;-47
2023/04/14 03:35:02;;;;;;;3.88;2.92;;;;;;;0.65;100.00;101022.44;5016934;28;20249;-47
2023/04/14 03:37:31;;;;;;;3.30;3.00;;;;;;;0.61;100.00;101018.94;5010631;28;20199;-47
2023/04/14 03:40:00;;;;;;;4.90;3.28;;;;;;;0.64;100.00;101030.38;5011281;28;20185;-48
2023/04/14 03:42:30;;;;;;;3.60;2.97;;;;;;;0.57;100.00;101030.34;4994022;28;20205;-46
2023/04/14 03:44:59;;;;;;;4.57;3.38;;;;;;;0.51;100.00;101025.00;5016616;28;20201;-47
2023/04/14 03:47:29;;;;;;;3.20;2.90;;;;;;;0.60;100.00;101034.72;5011899;28;20202;-47
2023/04/14 03:49:58;;;;;;;3.60;3.30;;;;;;;0.68;100.00;101033.03;5016372;28;20176;-47
2023/04/14 03:52:28;;;;;;;4.22;3.17;;;;;;;0.76;100.00;101026.00;5015187;28;20188;-46
2023/04/14 03:54:58;;;;;;;4.90;3.17;;;;;;;0.89;100.00;101026.09;5016441;28;20192;-48
2023/04/14 03:57:26;;;;;;;3.25;2.95;;;;;;;0.98;100.00;101031.41;5007504;28;20751;-48
2023/04/14 03:59:52;;;;;;;4.47;3.95;;;;;;;0.99;100.00;101031.41;5007020;28;20569;-48
2023/04/14 04:02:23;;;;;;;9.88;4.78;;;;;;;0.93;100.00;101030.50;5010699;28;20585;-48
2023/04/14 04:04:50;;;;;;;3.90;3.50;;;;;;;0.92;100.00;101029.63;4997401;28;20185;-48
2023/04/14 04:07:18;;;;;;;3.65;3.30;;;;;;;0.98;100.00;101031.41;5011472;28;20602;-46
2023/04/14 04:09:46;;;;;;;3.60;3.15;;;;;;;0.94;100.00;101042.81;5008509;28;20578;-48
2023/04/14 04:12:15;;;;;;;3.88;3.40;;;;;;;0.96;100.00;101038.41;5022197;28;20647;-47
2023/04/14 04:14:40;;;;;;;4.40;3.28;;;;;;;1.03;100.00;101041.09;5014459;28;20288;-49
2023/04/14 04:17:11;;;;;;;4.55;3.80;;;;;;;1.04;100.00;101041.97;4995669;28;20215;-47
2023/04/14 04:19:38;;;;;;;3.95;3.58;;;;;;;1.08;100.00;101035.84;5007062;28;20640;-48
2023/04/14 04:22:05;;;;;;;5.65;3.20;;;;;;;1.12;100.00;101039.38;5010979;28;20184;-48
2023/04/14 04:24:37;;;;;;;4.80;3.35;;;;;;;1.12;100.00;101045.53;5015675;28;20179;-47
2023/04/14 04:27:04;;;;;;;6.50;3.53;;;;;;;1.18;100.00;101048.22;5019773;28;20254;-47
2023/04/14 04:29:30;;;;;;;4.38;3.70;;;;;;;1.16;100.00;101046.41;5008605;28;20240;-48
2023/04/14 04:31:56;;;;;;;5.15;3.33;;;;;;;1.20;100.00;101056.09;5017217;28;20182;-47
2023/04/14 04:34:24;;;;;;;3.65;3.33;;;;;;;1.17;100.00;101049.06;5018648;28;20301;-51
2023/04/14 04:36:52;;;;;;;4.95;3.80;;;;;;;1.09;100.00;101048.16;5009300;28;20191;-49
2023/04/14 04:39:18;;;;;;;4.13;3.70;;;;;;;1.18;100.00;101056.13;5010373;28;20295;-48
2023/04/14 04:41:44;;;;;;;4.07;3.65;;;;;;;1.23;100.00;101054.38;5011310;28;20278;-48
2023/04/14 04:44:10;;;;;;;4.03;3.65;;;;;;;1.29;100.00;101060.53;5011968;28;20184;-48
2023/04/14 04:46:51;;;;;;;5.22;3.92;;;;;;;1.22;100.00;101063.19;5028302;28;20182;-49
2023/04/14 04:49:17;;;;;;;4.70;3.65;;;;;;;1.20;100.00;101064.94;4999927;28;20196;-47
2023/04/14 04:51:44;;;;;;;4.57;3.70;;;;;;;1.24;100.00;101071.97;5013715;28;20180;-49
2023/04/14 04:54:10;;;;;;;4.75;3.70;;;;;;;1.22;100.00;101068.47;5015189;28;20196;-46
2023/04/14 04:56:35;;;;;;;4.82;4.40;;;;;;;1.23;100.00;101078.13;5004185;28;20200;-47
2023/04/14 04:59:01;;;;;;;4.28;3.58;;;;;;;1.33;100.00;101088.72;5008328;28;20205;-48
2023/04/14 05:01:27;;;;;;;7.05;4.03;;;;;;;1.34;100.00;101087.84;4999311;28;20640;-46
2023/04/14 05:03:52;;;;;;;3.90;3.35;;;;;;;1.24;100.00;101076.38;5011815;28;20176;-48
2023/04/14 05:06:18;;;;;;;5.32;3.90;;;;;;;1.25;100.00;101078.16;5018176;28;20184;-48
2023/04/14 05:08:44;;;;;;;5.00;4.60;;;;;;;1.26;100.00;101085.16;5016862;28;20193;-46
2023/04/14 05:11:09;;;;;;;4.90;4.40;;;;;;;1.40;100.00;101082.56;5022635;28;20188;-48
2023/04/14 05:13:35;;;;;;;8.40;5.15;;;;;;;1.55;100.00;101081.75;4997675;28;20169;-48
2023/04/14 05:16:05;;;;;;;4.75;4.25;;;;;;;1.79;100.00;101083.56;5013255;28;20175;-48
2023/04/14 05:18:32;;;;;;;5.57;4.25;;;;;;;2.01;100.00;101081.81;5005788;28;20240;-47
2023/04/14 05:21:02;;;;;;;6.05;4.70;;;;;;;2.11;100.00;101066.88;5012999;28;20181;-48
2023/04/14 05:23:28;;;;;;;8.20;4.82;;;;;;;2.06;100.00;101080.97;5012629;28;20322;-47
2023/04/14 05:25:58;;;;;;;8.23;5.15;;;;;;;1.98;100.00;101072.13;5020805;28;20187;-48
2023/04/14 05:28:23;;;;;;;7.22;4.65;;;;;;;1.92;100.00;101072.13;5015930;28;20575;-48
2023/04/14 05:30:49;;;;;;;4.85;3.83;;;;;;;2.12;100.00;101080.09;5013833;28;20267;-49
2023/04/14 05:33:15;;;;;;;7.82;4.50;;;;;;;2.24;100.00;101073.91;5005847;28;20640;-46
2023/04/14 05:35:43;;;;;;;5.75;4.63;;;;;;;2.34;100.00;101080.97;5004608;28;20197;-47
2023/04/14 05:38:09;;;;;;;7.68;4.45;;;;;;;2.38;100.00;101092.41;5016521;28;20220;-47
2023/04/14 05:40:35;;;;;;;5.95;4.50;;;;;;;2.66;100.00;101080.03;5015327;28;20187;-46
2023/04/14 05:43:01;;;;;;;8.77;5.50;;;;;;;2.85;100.00;101079.13;5012955;28;20177;-47
2023/04/14 05:45:26;;;;;;;6.68;4.68;;;;;;;2.97;100.00;101072.91;5024020;28;20267;-47
2023/04/14 05:47:52;;;;;;;5.20;4.55;;;;;;;3.13;100.00;101071.09;5029597;28;20566;-48
2023/04/14 05:50:17;;;;;;;7.35;4.97;;;;;;;3.32;100.00;101076.31;5010557;28;20195;-47
2023/04/14 05:52:43;;;;;;;5.05;4.55;;;;;;;3.54;100.00;101080.59;5012695;28;20614;-47
2023/04/14 05:55:09;;;;;;;5.72;4.80;;;;;;;3.55;100.00;101082.38;5019186;28;20179;-47
2023/04/14 05:57:35;;;;;;;7.30;5.22;;;;;;;3.74;100.00;101085.81;5014251;28;20279;-47
2023/04/14 06:00:00;;;;;;;6.35;4.88;;;;;;;3.80;100.00;101083.09;5019902;28;20263;-47
2023/04/14 06:02:26;;;;;;;6.45;4.95;;;;;;;3.88;100.00;101081.28;5012308;28;20206;-47
2023/04/14 06:04:51;;;;;;;6.45;5.00;;;;;;;3.99;100.00;101080.34;5012330;28;20226;-48
2023/04/14 06:07:17;;;;;;;5.43;4.85;;;;;;;4.10;100.00;101081.16;5014264;28;20268;-47
2023/04/14 06:09:45;;;;;;;5.63;4.55;;;;;;;4.29;100.00;101084.53;5005142;28;20209;-49
2023/04/14 06:12:13;;;;;;;7.80;5.18;;;;;;;4.43;100.00;101089.72;5014881;28;20464;-49
2023/04/14 06:14:39;;;;;;;6.88;5.25;;;;;;;4.58;100.00;101086.94;5019607;28;20192;-49
2023/04/14 06:17:05;;;;;;;5.85;5.07;;;;;;;4.86;100.00;101087.53;5015059;28;20239;-46
2023/04/14 06:19:30;;;;;;;5.82;5.30;;;;;;;5.05;100.00;101085.56;5022391;28;20695;-48
2023/04/14 06:21:55;;;;;;;7.70;6.40;;;;;;;5.16;100.00;101082.78;5013553;28;20207;-47
2023/04/14 06:24:21;;;;;;;8.38;5.95;;;;;;;5.23;100.00;101086.25;5016824;28;20796;-49
2023/04/14 06:26:46;;;;;;;6.75;5.85;;;;;;;5.09;100.00;101092.56;5004826;28;20688;-47
2023/04/14 06:29:13;;;;;;;7.80;5.80;;;;;;;4.93;100.00;101075.94;5012042;28;20646;-48
2023/04/14 06:31:38;;;;;;;6.65;5.95;;;;;;;4.89;100.00;101087.50;5012932;28;20598;-49
2023/04/14 06:34:04;;;;;;;8.27;6.32;;;;;;;5.07;100.00;101085.53;5007289;28;20200;-49
2023/04/14 06:36:30;;;;;;;7.68;6.18;;;;;;;5.22;100.00;101082.69;5007423;28;20192;-49
2023/04/14 06:38:57;;;;;;;9.57;6.70;;;;;;;5.40;100.00;101086.00;5022082;28;20257;-48
2023/04/14 06:41:23;;;;;;;8.07;6.38;;;;;;;5.41;100.00;101090.44;5024582;28;20188;-49
2023/04/14 06:43:48;;;;;;;9.95;6.43;;;;;;;5.51;100.00;101094.72;5010661;28;20190;-46
2023/04/14 06:46:14;;;;;;;10.65;6.82;;;;;;;5.47;100.00;101090.38;5004933;28;20169;-48
2023/04/14 06:48:39;;;;;;;8.07;6.40;;;;;;;5.63;100.00;101093.69;4998301;28;20200;-47
2023/04/14 06:51:09;;;;;;;8.00;6.25;;;;;;;5.85;100.00;101091.63;5001327;28;20195;-49
2023/04/14 06:53:35;;;;;;;7.57;6.65;;;;;;;6.20;100.00;101085.78;5015877;28;20216;-48
2023/04/14 06:56:01;;;;;;;10.90;6.70;;;;;;;6.69;100.00;101092.06;5013471;28;20207;-47
2023/04/14 06:58:27;;;;;;;9.85;7.10;;;;;;;7.09;100.00;101078.88;5016271;28;20246;-46
2023/04/14 07:00:55;;;;;;;7.47;6.78;;;;;;;7.45;100.00;101083.47;5005286;28;20221;-43
2023/04/14 07:03:20;;;;;;;8.40;7.18;;;;;;;7.39;100.00;101084.47;5011739;28;20545;-42
2023/04/14 07:05:46;;;;;;;7.50;6.78;;;;;;;7.77;100.00;101080.97;5010166;28;20259;-46
2023/04/14 07:08:12;;;;;;;7.38;5.45;;;;;;;7.35;100.00;101075.69;5002551;28;20288;-46
2023/04/14 07:10:37;;;;;;;9.07;5.72;;;;;;;7.62;100.00;101086.66;5010094;28;20263;-45
2023/04/14 07:13:03;;;;;;;7.50;5.80;;;;;;;8.22;100.00;101066.56;5018999;28;20168;-45
2023/04/14 07:15:28;;;;;;;7.93;5.35;;;;;;;8.34;100.00;101070.75;5016460;28;20189;-46
2023/04/14 07:17:54;;;;;;;7.05;5.53;;;;;;;8.43;100.00;101059.88;5013032;28;20579;-44
2023/04/14 07:20:20;;;;;;;12.27;5.57;;;;;;;8.57;100.00;101067.50;5020295;28;20283;-45
2023/04/14 07:22:45;;;;;;;5.80;4.97;;;;;;;8.79;100.00;101052.69;5007337;28;20177;-46
2023/04/14 07:25:11;;;;;;;6.63;4.63;;;;;;;9.00;100.00;101053.88;5011106;28;20177;-47
2023/04/14 07:27:36;;;;;;;6.93;4.20;;;;;;;9.05;100.00;101053.72;5012591;28;20243;-45
2023/04/14 07:30:02;;;;;;;8.43;3.92;;;;;;;8.99;100.00;101045.91;5011839;28;20663;-46
2023/04/14 07:32:28;;;;;;;7.65;4.35;;;;;;;8.98;100.00;101041.47;5018213;28;20199;-47
2023/04/14 07:34:53;;;;;;;8.32;4.45;;;;;;;8.92;100.00;101046.97;5022922;28;20184;-47
2023/04/14 07:37:19;;;;;;;7.32;3.95;;;;;;;8.82;100.00;101047.25;5011277;28;20334;-45
2023/04/14 07:39:45;;;;;;;6.25;5.00;;;;;;;8.61;100.00;101048.69;5009144;28;20309;-47
2023/04/14 07:42:11;;;;;;;11.23;5.03;;;;;;;8.55;100.00;101045.31;5003063;28;20181;-44
2023/04/14 07:44:37;;;;;;;4.60;4.07;;;;;;;8.82;100.00;101052.59;5010554;28;20182;-45
2023/04/14 07:47:03;;;;;;;7.63;4.30;;;;;;;8.94;100.00;101059.38;5013080;28;20207;-46
2023/04/14 07:49:28;;;;;;;6.85;3.97;;;;;;;8.98;100.00;101061.03;5022689;28;20200;-45
2023/04/14 07:51:55;;;;;;;6.10;2.75;;;;;;;9.04;100.00;101060.00;5020005;28;20195;-47
2023/04/14 07:54:21;;;;;;;10.15;2.97;;;;;;;9.34;100.00;101052.91;5018699;28;20275;-46
2023/04/14 07:56:47;;;;;;;8.18;2.63;;;;;;;9.06;100.00;101048.34;5015560;28;20255;-46
2023/04/14 07:59:13;;;;;;;12.40;3.08;;;;;;;8.97;100.00;101055.75;5008621;28;20607;-46
2023/04/14 08:01:38;;;;;;;8.60;2.80;;;;;;;9.10;100.00;101053.63;5003598;28;20260;-46
2023/04/14 08:04:04;;;;;;;13.38;3.20;;;;;;;8.82;100.00;101049.03;5010691;28;20658;-45
2023/04/14 08:06:30;;;;;;;7.47;2.53;;;;;;;8.91;100.00;101045.25;5012098;28;20201;-47
2023/04/14 08:08:55;;;;;;;7.22;2.30;;;;;;;8.86;99.83;101048.91;5004476;28;20213;-45
2023/04/14 08:11:21;;;;;;;8.93;2.38;;;;;;;8.89;99.30;101045.28;5017568;28;20187;-47
2023/04/14 08:13:48;;;;;;;11.48;2.72;;;;;;;8.57;99.10;101047.03;5019836;28;20664;-47
2023/04/14 08:16:14;;;;;;;6.63;2.75;;;;;;;8.48;99.34;101049.06;5010411;28;20633;-46
2023/04/14 08:18:40;;;;;;;7.55;2.95;;;;;;;8.73;100.00;101051.97;4996296;28;20296;-44
2023/04/14 08:21:06;;;;;;;8.25;3.00;;;;;;;8.75;99.22;101047.47;5005857;28;20605;-46
2023/04/14 08:23:32;;;;;;;6.60;2.30;;;;;;;8.91;99.32;101043.44;5002308;28;20259;-45
2023/04/14 08:25:58;;;;;;;9.75;3.28;;;;;;;8.96;99.32;101045.97;5012376;28;20663;-44
2023/04/14 08:28:23;;;;;;;8.48;2.67;;;;;;;8.95;98.91;101047.78;5012650;28;20276;-46
2023/04/14 08:30:49;;;;;;;6.25;3.70;;;;;;;8.76;99.81;101049.22;5011302;28;20212;-46
2023/04/14 08:33:15;;;;;;;7.38;3.78;;;;;;;8.69;99.84;101056.50;5021976;28;20176;-46
2023/04/14 08:35:40;;;;;;;7.35;3.50;;;;;;;8.78;100.00;101050.91;5000073;28;20566;-45
2023/04/14 08:38:06;;;;;;;9.23;4.20;;;;;;;8.17;100.00;101056.00;5002136;28;20202;-45
2023/04/14 08:40:40;;;;;;;6.78;4.53;;;;;;;8.40;100.00;101062.59;5008851;28;20177;-46
2023/04/14 08:43:06;;;;;;;7.25;3.88;;;;;;;8.71;100.00;101064.50;5002897;28;20177;-44
2023/04/14 08:45:32;;;;;;;8.35;3.72;;;;;;;8.63;100.00;101054.88;5016599;28;20716;-45
2023/04/14 08:47:59;;;;;;;11.55;3.33;;;;;;;8.83;100.00;101057.03;5015355;28;20195;-46
2023/04/14 08:50:31;;;;;;;10.27;3.75;;;;;;;9.04;100.00;101066.22;5011931;28;20721;-45
2023/04/14 08:53:01;;;;;;;9.80;3.05;;;;;;;9.32;100.00;101062.78;5007064;28;20480;-46
2023/04/14 08:55:28;;;;;;;7.63;2.78;;;;;;;9.22;100.00;101056.78;5000600;28;20213;-48
2023/04/14 08:57:54;;;;;;;10.10;2.90;;;;;;;8.77;99.07;101061.66;5015345;28;20200;-43
2023/04/14 09:00:21;;;;;;;9.98;3.08;;;;;;;8.79;97.73;101049.09;5008073;28;20207;-43
2023/04/14 09:02:47;;;;;;;10.65;3.10;;;;;;;8.89;97.27;101047.06;5008199;28;20247;-44
2023/04/14 09:05:14;;;;;;;10.18;2.67;;;;;;;8.65;96.24;101050.38;5020084;28;20292;-45
2023/04/14 09:07:41;;;;;;;7.90;3.08;;;;;;;8.56;95.70;101053.28;5016575;28;20652;-43
2023/04/14 09:10:09;;;;;;;8.88;2.90;;;;;;;8.70;95.35;101055.56;5009480;28;20740;-46
2023/04/14 09:12:37;;;;;;;10.48;2.88;;;;;;;8.94;95.30;101055.84;5016580;28;20255;-48
2023/04/14 09:15:03;;;;;;;9.02;3.40;;;;;;;8.72;94.77;101051.06;5009855;28;20177;-43
2023/04/14 09:17:29;;;;;;;10.60;3.45;;;;;;;8.73;94.67;101055.50;5007981;28;20188;-45
2023/04/14 09:19:55;;;;;;;10.57;3.33;;;;;;;8.90;95.17;101051.50;5019194;28;20308;-45
2023/04/14 09:22:21;;;;;;;10.13;3.42;;;;;;;9.00;94.51;101051.19;5010651;28;20170;-44
2023/04/14 09:24:47;;;;;;;10.77;3.20;;;;;;;8.97;94.19;101059.31;5017426;28;20186;-44
2023/04/14 09:27:12;;;;;;;10.15;3.13;;;;;;;8.94;93.99;101047.81;5004757;28;20188;-43
2023/04/14 09:29:40;;;;;;;11.40;2.90;;;;;;;9.06;93.96;101047.47;5018672;28;20216;-46
2023/04/14 09:32:06;;;;;;;13.50;3.58;;;;;;;9.30;93.97;101048.56;5013045;28;20196;-43
2023/04/14 09:34:31;;;;;;;13.85;3.28;;;;;;;9.19;93.09;101038.19;5014637;28;20199;-44
2023/04/14 09:37:05;;;;;;;10.32;2.75;;;;;;;8.73;92.24;101054.66;5013619;28;20172;-41
2023/04/14 09:39:45;;;;;;;13.48;3.72;;;;;;;8.84;91.80;101040.06;5016901;28;20217;-41
2023/04/14 09:42:11;;;;;;;8.82;2.60;;;;;;;8.83;91.16;101048.09;5006830;28;20180;-45
2023/04/14 09:44:51;;;;;;;10.40;3.13;;;;;;;8.86;90.90;101040.91;5015134;28;20183;-47
2023/04/14 09:47:19;;;;;;;11.73;2.85;;;;;;;8.85;90.57;101052.53;5022564;28;20176;-46
2023/04/14 09:49:56;;;;;;;11.30;3.13;;;;;;;8.85;90.83;101043.59;5009814;28;20246;-45
2023/04/14 09:52:22;;;;;;;9.07;3.47;;;;;;;8.90;90.95;101054.16;5005174;28;20177;-42
2023/04/14 09:54:55;;;;;;;11.98;2.95;;;;;;;8.89;91.27;101055.09;5013303;28;20249;-42
2023/04/14 09:57:25;;;;;;;10.95;3.50;;;;;;;8.93;91.56;101056.75;5015458;28;20197;-41
2023/04/14 09:59:51;;;;;;;8.77;3.17;;;;;;;9.02;91.71;101046.69;4999924;28;20207;-46
2023/04/14 10:02:17;;;;;;;12.63;2.72;;;;;;;9.28;92.18;101050.41;5016292;28;20264;-47
2023/04/14 10:04:42;;;;;;;10.32;3.17;;;;;;;9.31;91.66;101050.31;5017074;28;20271;-43
2023/04/14 10:07:10;;;;;;;9.05;3.22;;;;;;;9.35;91.27;101065.34;5008460;28;20190;-43
2023/04/14 10:09:37;;;;;;;10.15;3.35;;;;;;;9.05;90.77;101057.31;5012633;28;20250;-48
2023/04/14 10:12:13;;;;;;;9.32;3.28;;;;;;;9.27;91.11;101062.00;5006418;28;20185;-49
2023/04/14 10:14:40;;;;;;;10.65;3.20;;;;;;;9.41;90.04;101059.81;5006453;28;20312;-43
2023/04/14 10:17:06;;;;;;;11.13;2.88;;;;;;;8.97;89.64;101056.63;5012631;28;20267;-45
2023/04/14 10:19:33;;;;;;;13.35;3.58;;;;;;;9.07;89.60;101058.13;5031649;28;20207;-43
2023/04/14 10:21:59;;;;;;;12.75;3.45;;;;;;;9.06;89.34;101055.50;5012617;28;20188;-43
2023/04/14 10:24:25;;;;;;;16.00;3.00;;;;;;;8.92;88.73;101049.66;5017061;28;20546;-43
2023/04/14 10:26:51;;;;;;;12.02;3.17;;;;;;;8.92;88.71;101042.53;5007508;28;20185;-45
2023/04/14 10:29:17;;;;;;;12.20;2.78;;;;;;;8.89;88.67;101044.41;5008526;28;20292;-45
2023/04/14 10:31:51;;;;;;;14.05;3.53;;;;;;;9.20;88.82;101049.75;5011349;28;20185;-43
2023/04/14 10:34:18;;;;;;;16.83;2.85;;;;;;;9.21;88.79;101047.03;5019893;28;20190;-46
2023/04/14 10:36:43;;;;;;;8.45;2.85;;;;;;;8.97;88.50;101037.94;5009524;28;20185;-43
2023/04/14 10:39:10;;;;;;;13.20;2.70;;;;;;;8.78;87.88;101040.22;5019422;28;20212;-45
2023/04/14 10:41:50;;;;;;;14.00;3.22;;;;;;;8.96;88.14;101040.63;5010540;28;20507;-43
2023/04/14 10:44:31;;;;;;;7.80;3.38;;;;;;;8.79;87.98;101033.97;5009693;28;20195;-43
2023/04/14 10:47:00;;;;;;;12.80;3.05;;;;;;;8.84;87.92;101039.19;5012793;28;20648;-45
2023/04/14 10:49:37;;;;;;;9.73;2.92;;;;;;;9.22;87.65;101034.53;5006370;28;20213;-48
2023/04/14 10:52:05;;;;;;;13.65;3.35;;;;;;;9.25;87.33;101031.78;5016143;28;20183;-40
2023/04/14 10:54:59;;;;;;;11.73;2.90;;;;;;;9.17;86.62;101023.97;5014824;28;20692;-48
2023/04/14 10:57:26;;;;;;;9.07;2.67;;;;;;;9.20;86.49;101029.22;5011400;28;20176;-46
2023/04/14 10:59:54;;;;;;;10.45;2.53;;;;;;;9.24;85.97;101014.00;5018317;28;20207;-43
2023/04/14 11:02:24;;;;;;;10.45;2.88;;;;;;;9.30;86.29;101032.53;5010378;28;20550;-44
2023/04/14 11:05:10;;;;;;;11.95;2.45;;;;;;;9.43;86.22;101025.88;5011579;28;20184;-45
2023/04/14 11:07:47;;;;;;;10.40;2.92;;;;;;;9.58;86.00;101013.84;5009892;28;20190;-45
2023/04/14 11:10:15;;;;;;;7.95;2.53;;;;;;;9.77;86.31;101019.47;5008964;28;20593;-41
2023/04/14 11:12:42;;;;;;;6.00;2.42;;;;;;;9.63;85.21;101021.72;5017073;28;20231;-42
2023/04/14 11:15:08;;;;;;;9.98;2.55;;;;;;;9.79;84.89;101016.75;5012024;28;20213;-47
2023/04/14 11:17:38;;;;;;;10.40;2.40;;;;;;;9.44;84.65;101011.56;5011507;28;20222;-47
2023/04/14 11:20:21;;;;;;;6.68;2.22;;;;;;;9.49;84.80;101004.31;5013234;28;20201;-41
2023/04/14 11:22:49;;;;;;;10.90;2.35;;;;;;;9.78;85.13;101007.00;5002625;28;20188;-43
2023/04/14 11:25:16;;;;;;;11.82;2.40;;;;;;;9.29;84.19;101006.69;5004456;28;20190;-44
2023/04/14 11:27:43;;;;;;;10.57;2.40;;;;;;;9.74;84.80;101006.19;5009248;28;20180;-42
2023/04/14 11:30:19;;;;;;;7.32;2.15;;;;;;;10.10;84.38;100998.78;5009316;28;20527;-43